sensor_id;sensor_type;location;lat;lon;timestamp;P1;durP1;ratioP1;P2;durP2;ratioP2
8538;SDS011;4307;53.868;11.680;2022-10-29T00:00:50;21.13;;;5.17;;
8538;SDS011;4307;53.868;11.680;2022-10-29T00:03:17;9.27;;;4.60;;
8538;SDS011;4307;53.868;11.680;2022-10-29T00:05:54;14.03;;;4.90;;
8538;SDS011;4307;53.868;11.680;2022-10-29T00:08:21;11.83;;;4.50;;
8538;SDS011;4307;53.868;11.680;2022-10-29T00:10:48;11.50;;;4.40;;
8538;SDS011;4307;53.868;11.680;2022-10-29T00:13:14;11.50;;;4.30;;
8538;SDS011;4307;53.868;11.680;2022-10-29T00:15:41;8.00;;;4.03;;
8538;SDS011;4307;53.868;11.680;2022-10-29T00:18:08;12.30;;;4.60;;
8538;SDS011;4307;53.868;11.680;2022-10-29T00:20:34;11.17;;;4.80;;
8538;SDS011;4307;53.868;11.680;2022-10-29T00:23:02;10.73;;;4.60;;
8538;SDS011;4307;53.868;11.680;2022-10-29T00:25:29;11.13;;;4.83;;
8538;SDS011;4307;53.868;11.680;2022-10-29T00:27:55;10.60;;;4.73;;
8538;SDS011;4307;53.868;11.680;2022-10-29T00:30:22;11.33;;;4.83;;
8538;SDS011;4307;53.868;11.680;2022-10-29T00:32:49;14.87;;;5.00;;
8538;SDS011;4307;53.868;11.680;2022-10-29T00:35:15;8.60;;;4.33;;
8538;SDS011;4307;53.868;11.680;2022-10-29T00:37:42;11.63;;;5.03;;
8538;SDS011;4307;53.868;11.680;2022-10-29T00:40:11;10.40;;;4.57;;
8538;SDS011;4307;53.868;11.680;2022-10-29T00:42:38;14.17;;;5.03;;
8538;SDS011;4307;53.868;11.680;2022-10-29T00:45:05;16.10;;;4.50;;
8538;SDS011;4307;53.868;11.680;2022-10-29T00:47:37;6.87;;;3.57;;
8538;SDS011;4307;53.868;11.680;2022-10-29T00:50:07;9.70;;;4.03;;
8538;SDS011;4307;53.868;11.680;2022-10-29T00:52:38;9.93;;;4.57;;
8538;SDS011;4307;53.868;11.680;2022-10-29T00:55:11;13.80;;;5.37;;
8538;SDS011;4307;53.868;11.680;2022-10-29T00:57:41;15.03;;;5.20;;
8538;SDS011;4307;53.868;11.680;2022-10-29T01:00:13;12.23;;;4.43;;
8538;SDS011;4307;53.868;11.680;2022-10-29T01:02:43;15.37;;;5.23;;
8538;SDS011;4307;53.868;11.680;2022-10-29T01:05:11;20.57;;;5.30;;
8538;SDS011;4307;53.868;11.680;2022-10-29T01:07:40;12.13;;;5.43;;
8538;SDS011;4307;53.868;11.680;2022-10-29T01:10:07;11.27;;;4.27;;
8538;SDS011;4307;53.868;11.680;2022-10-29T01:12:45;12.60;;;4.90;;
8538;SDS011;4307;53.868;11.680;2022-10-29T01:15:22;10.07;;;4.80;;
8538;SDS011;4307;53.868;11.680;2022-10-29T01:17:57;12.67;;;5.37;;
8538;SDS011;4307;53.868;11.680;2022-10-29T01:20:34;13.90;;;5.30;;
8538;SDS011;4307;53.868;11.680;2022-10-29T01:23:31;11.50;;;5.43;;
8538;SDS011;4307;53.868;11.680;2022-10-29T01:26:45;14.77;;;5.13;;
8538;SDS011;4307;53.868;11.680;2022-10-29T01:29:38;11.83;;;5.50;;
8538;SDS011;4307;53.868;11.680;2022-10-29T01:32:16;15.90;;;5.60;;
8538;SDS011;4307;53.868;11.680;2022-10-29T01:34:49;14.23;;;5.43;;
8538;SDS011;4307;53.868;11.680;2022-10-29T01:37:23;12.03;;;5.80;;
8538;SDS011;4307;53.868;11.680;2022-10-29T01:39:59;12.83;;;5.50;;
8538;SDS011;4307;53.868;11.680;2022-10-29T01:42:31;15.20;;;5.30;;
8538;SDS011;4307;53.868;11.680;2022-10-29T01:45:03;10.20;;;5.07;;
8538;SDS011;4307;53.868;11.680;2022-10-29T01:47:39;12.73;;;5.03;;
8538;SDS011;4307;53.868;11.680;2022-10-29T01:50:09;17.47;;;5.40;;
8538;SDS011;4307;53.868;11.680;2022-10-29T01:52:40;13.70;;;5.33;;
8538;SDS011;4307;53.868;11.680;2022-10-29T01:55:08;17.27;;;5.97;;
8538;SDS011;4307;53.868;11.680;2022-10-29T01:57:36;13.40;;;5.20;;
8538;SDS011;4307;53.868;11.680;2022-10-29T02:00:05;16.10;;;5.10;;
8538;SDS011;4307;53.868;11.680;2022-10-29T02:02:40;13.40;;;5.60;;
8538;SDS011;4307;53.868;11.680;2022-10-29T02:05:18;18.30;;;5.20;;
8538;SDS011;4307;53.868;11.680;2022-10-29T02:07:53;21.70;;;6.23;;
8538;SDS011;4307;53.868;11.680;2022-10-29T02:10:25;14.30;;;6.60;;
8538;SDS011;4307;53.868;11.680;2022-10-29T02:12:57;12.20;;;4.90;;
8538;SDS011;4307;53.868;11.680;2022-10-29T02:15:26;8.80;;;5.33;;
8538;SDS011;4307;53.868;11.680;2022-10-29T02:18:01;14.73;;;5.37;;
8538;SDS011;4307;53.868;11.680;2022-10-29T02:20:30;9.67;;;5.30;;
8538;SDS011;4307;53.868;11.680;2022-10-29T02:22:57;16.30;;;5.90;;
8538;SDS011;4307;53.868;11.680;2022-10-29T02:25:23;11.37;;;5.27;;
8538;SDS011;4307;53.868;11.680;2022-10-29T02:27:50;18.50;;;5.77;;
8538;SDS011;4307;53.868;11.680;2022-10-29T02:30:17;11.10;;;5.60;;
8538;SDS011;4307;53.868;11.680;2022-10-29T02:32:43;10.63;;;5.30;;
8538;SDS011;4307;53.868;11.680;2022-10-29T02:35:11;16.03;;;6.00;;
8538;SDS011;4307;53.868;11.680;2022-10-29T02:37:38;11.33;;;4.97;;
8538;SDS011;4307;53.868;11.680;2022-10-29T02:40:05;15.00;;;6.13;;
8538;SDS011;4307;53.868;11.680;2022-10-29T02:42:33;18.97;;;6.67;;
8538;SDS011;4307;53.868;11.680;2022-10-29T02:44:59;11.97;;;5.57;;
8538;SDS011;4307;53.868;11.680;2022-10-29T02:47:26;12.43;;;5.47;;
8538;SDS011;4307;53.868;11.680;2022-10-29T02:49:53;14.97;;;5.63;;
8538;SDS011;4307;53.868;11.680;2022-10-29T02:52:21;15.07;;;6.23;;
8538;SDS011;4307;53.868;11.680;2022-10-29T02:54:47;10.73;;;5.87;;
8538;SDS011;4307;53.868;11.680;2022-10-29T02:57:14;11.30;;;5.80;;
8538;SDS011;4307;53.868;11.680;2022-10-29T02:59:40;17.33;;;6.20;;
8538;SDS011;4307;53.868;11.680;2022-10-29T03:02:07;16.70;;;5.33;;
8538;SDS011;4307;53.868;11.680;2022-10-29T03:04:34;12.03;;;6.10;;
8538;SDS011;4307;53.868;11.680;2022-10-29T03:07:03;11.53;;;5.43;;
8538;SDS011;4307;53.868;11.680;2022-10-29T03:09:31;17.40;;;5.33;;
8538;SDS011;4307;53.868;11.680;2022-10-29T03:11:57;14.67;;;6.67;;
8538;SDS011;4307;53.868;11.680;2022-10-29T03:14:24;10.00;;;5.40;;
8538;SDS011;4307;53.868;11.680;2022-10-29T03:16:51;12.13;;;5.93;;
8538;SDS011;4307;53.868;11.680;2022-10-29T03:19:17;18.87;;;6.17;;
8538;SDS011;4307;53.868;11.680;2022-10-29T03:21:44;17.73;;;6.03;;
8538;SDS011;4307;53.868;11.680;2022-10-29T03:24:11;13.37;;;6.07;;
8538;SDS011;4307;53.868;11.680;2022-10-29T03:26:38;12.03;;;6.13;;
8538;SDS011;4307;53.868;11.680;2022-10-29T03:29:05;15.10;;;6.57;;
8538;SDS011;4307;53.868;11.680;2022-10-29T03:31:32;15.20;;;6.20;;
8538;SDS011;4307;53.868;11.680;2022-10-29T03:33:58;11.00;;;5.53;;
8538;SDS011;4307;53.868;11.680;2022-10-29T03:36:25;21.83;;;6.40;;
8538;SDS011;4307;53.868;11.680;2022-10-29T03:38:52;14.50;;;5.50;;
8538;SDS011;4307;53.868;11.680;2022-10-29T03:41:18;11.97;;;5.93;;
8538;SDS011;4307;53.868;11.680;2022-10-29T03:43:46;17.53;;;5.57;;
8538;SDS011;4307;53.868;11.680;2022-10-29T03:46:13;13.50;;;5.77;;
8538;SDS011;4307;53.868;11.680;2022-10-29T03:48:39;9.80;;;5.67;;
8538;SDS011;4307;53.868;11.680;2022-10-29T03:51:06;18.67;;;5.47;;
8538;SDS011;4307;53.868;11.680;2022-10-29T03:53:33;18.63;;;5.23;;
8538;SDS011;4307;53.868;11.680;2022-10-29T03:56:01;17.40;;;5.87;;
8538;SDS011;4307;53.868;11.680;2022-10-29T03:58:28;11.10;;;5.53;;
8538;SDS011;4307;53.868;11.680;2022-10-29T04:00:57;17.33;;;6.00;;
8538;SDS011;4307;53.868;11.680;2022-10-29T04:03:24;17.30;;;5.50;;
8538;SDS011;4307;53.868;11.680;2022-10-29T04:05:52;18.07;;;5.90;;
8538;SDS011;4307;53.868;11.680;2022-10-29T04:08:19;15.67;;;5.33;;
8538;SDS011;4307;53.868;11.680;2022-10-29T04:10:47;18.83;;;6.10;;
8538;SDS011;4307;53.868;11.680;2022-10-29T04:13:15;13.87;;;5.40;;
8538;SDS011;4307;53.868;11.680;2022-10-29T04:15:42;11.30;;;6.47;;
8538;SDS011;4307;53.868;11.680;2022-10-29T04:18:10;13.00;;;5.63;;
8538;SDS011;4307;53.868;11.680;2022-10-29T04:20:38;17.27;;;6.33;;
8538;SDS011;4307;53.868;11.680;2022-10-29T04:23:05;16.17;;;6.80;;
8538;SDS011;4307;53.868;11.680;2022-10-29T04:25:32;14.97;;;6.80;;
8538;SDS011;4307;53.868;11.680;2022-10-29T04:27:58;20.60;;;6.57;;
8538;SDS011;4307;53.868;11.680;2022-10-29T04:30:25;16.70;;;7.13;;
8538;SDS011;4307;53.868;11.680;2022-10-29T04:32:54;19.87;;;6.60;;
8538;SDS011;4307;53.868;11.680;2022-10-29T04:35:23;26.33;;;7.90;;
8538;SDS011;4307;53.868;11.680;2022-10-29T04:37:50;16.33;;;7.13;;
8538;SDS011;4307;53.868;11.680;2022-10-29T04:40:19;13.97;;;7.27;;
8538;SDS011;4307;53.868;11.680;2022-10-29T04:42:46;15.90;;;9.30;;
8538;SDS011;4307;53.868;11.680;2022-10-29T04:45:13;20.10;;;7.40;;
8538;SDS011;4307;53.868;11.680;2022-10-29T04:47:39;13.30;;;6.10;;
8538;SDS011;4307;53.868;11.680;2022-10-29T04:50:06;15.87;;;6.33;;
8538;SDS011;4307;53.868;11.680;2022-10-29T04:52:35;11.00;;;5.53;;
8538;SDS011;4307;53.868;11.680;2022-10-29T04:55:01;16.03;;;6.73;;
8538;SDS011;4307;53.868;11.680;2022-10-29T04:57:28;12.87;;;5.23;;
8538;SDS011;4307;53.868;11.680;2022-10-29T04:59:55;17.50;;;6.03;;
8538;SDS011;4307;53.868;11.680;2022-10-29T05:02:21;13.63;;;5.90;;
8538;SDS011;4307;53.868;11.680;2022-10-29T05:04:48;17.33;;;6.00;;
8538;SDS011;4307;53.868;11.680;2022-10-29T05:07:14;15.33;;;5.57;;
8538;SDS011;4307;53.868;11.680;2022-10-29T05:09:42;12.13;;;5.83;;
8538;SDS011;4307;53.868;11.680;2022-10-29T05:12:09;14.60;;;5.37;;
8538;SDS011;4307;53.868;11.680;2022-10-29T05:14:36;15.60;;;6.10;;
8538;SDS011;4307;53.868;11.680;2022-10-29T05:17:02;16.40;;;5.50;;
8538;SDS011;4307;53.868;11.680;2022-10-29T05:19:29;15.13;;;5.50;;
8538;SDS011;4307;53.868;11.680;2022-10-29T05:21:55;13.30;;;5.07;;
8538;SDS011;4307;53.868;11.680;2022-10-29T05:24:22;14.90;;;5.23;;
8538;SDS011;4307;53.868;11.680;2022-10-29T05:26:50;17.37;;;5.83;;
8538;SDS011;4307;53.868;11.680;2022-10-29T05:29:17;13.93;;;4.97;;
8538;SDS011;4307;53.868;11.680;2022-10-29T05:31:43;14.60;;;5.73;;
8538;SDS011;4307;53.868;11.680;2022-10-29T05:34:10;15.43;;;5.60;;
8538;SDS011;4307;53.868;11.680;2022-10-29T05:36:36;14.03;;;5.60;;
8538;SDS011;4307;53.868;11.680;2022-10-29T05:39:03;14.60;;;5.70;;
8538;SDS011;4307;53.868;11.680;2022-10-29T05:41:30;14.90;;;5.67;;
8538;SDS011;4307;53.868;11.680;2022-10-29T05:43:58;16.90;;;5.07;;
8538;SDS011;4307;53.868;11.680;2022-10-29T05:46:24;20.13;;;4.90;;
8538;SDS011;4307;53.868;11.680;2022-10-29T05:48:51;15.97;;;5.20;;
8538;SDS011;4307;53.868;11.680;2022-10-29T05:51:18;12.77;;;4.90;;
8538;SDS011;4307;53.868;11.680;2022-10-29T05:53:44;9.67;;;4.73;;
8538;SDS011;4307;53.868;11.680;2022-10-29T05:56:12;13.60;;;5.43;;
8538;SDS011;4307;53.868;11.680;2022-10-29T05:58:39;18.83;;;6.10;;
8538;SDS011;4307;53.868;11.680;2022-10-29T06:01:07;20.33;;;5.67;;
8538;SDS011;4307;53.868;11.680;2022-10-29T06:03:35;10.57;;;5.50;;
8538;SDS011;4307;53.868;11.680;2022-10-29T06:06:03;13.30;;;5.60;;
8538;SDS011;4307;53.868;11.680;2022-10-29T06:08:29;21.80;;;6.30;;
8538;SDS011;4307;53.868;11.680;2022-10-29T06:10:59;20.70;;;6.53;;
8538;SDS011;4307;53.868;11.680;2022-10-29T06:13:26;18.03;;;6.20;;
8538;SDS011;4307;53.868;11.680;2022-10-29T06:15:55;13.20;;;5.57;;
8538;SDS011;4307;53.868;11.680;2022-10-29T06:18:24;14.70;;;5.90;;
8538;SDS011;4307;53.868;11.680;2022-10-29T06:20:51;22.93;;;6.77;;
8538;SDS011;4307;53.868;11.680;2022-10-29T06:23:17;16.87;;;5.73;;
8538;SDS011;4307;53.868;11.680;2022-10-29T06:25:44;17.83;;;5.80;;
8538;SDS011;4307;53.868;11.680;2022-10-29T06:28:11;19.17;;;6.47;;
8538;SDS011;4307;53.868;11.680;2022-10-29T06:30:39;18.47;;;6.03;;
8538;SDS011;4307;53.868;11.680;2022-10-29T06:33:06;14.17;;;6.00;;
8538;SDS011;4307;53.868;11.680;2022-10-29T06:35:34;19.10;;;7.30;;
8538;SDS011;4307;53.868;11.680;2022-10-29T06:38:01;14.90;;;7.50;;
8538;SDS011;4307;53.868;11.680;2022-10-29T06:40:28;18.43;;;6.73;;
8538;SDS011;4307;53.868;11.680;2022-10-29T06:42:57;21.50;;;8.27;;
8538;SDS011;4307;53.868;11.680;2022-10-29T06:45:24;19.60;;;7.70;;
8538;SDS011;4307;53.868;11.680;2022-10-29T06:47:51;17.67;;;6.93;;
8538;SDS011;4307;53.868;11.680;2022-10-29T06:50:18;17.17;;;6.63;;
8538;SDS011;4307;53.868;11.680;2022-10-29T06:52:53;16.57;;;6.53;;
8538;SDS011;4307;53.868;11.680;2022-10-29T06:55:20;15.27;;;6.40;;
8538;SDS011;4307;53.868;11.680;2022-10-29T06:57:47;16.53;;;8.20;;
8538;SDS011;4307;53.868;11.680;2022-10-29T07:00:20;18.43;;;6.00;;
8538;SDS011;4307;53.868;11.680;2022-10-29T07:02:47;18.00;;;8.03;;
8538;SDS011;4307;53.868;11.680;2022-10-29T07:05:13;17.70;;;6.73;;
8538;SDS011;4307;53.868;11.680;2022-10-29T07:07:40;20.77;;;7.77;;
8538;SDS011;4307;53.868;11.680;2022-10-29T07:10:08;22.63;;;9.40;;
8538;SDS011;4307;53.868;11.680;2022-10-29T07:12:37;15.73;;;7.97;;
8538;SDS011;4307;53.868;11.680;2022-10-29T07:15:05;16.27;;;7.53;;
8538;SDS011;4307;53.868;11.680;2022-10-29T07:17:32;12.63;;;6.47;;
8538;SDS011;4307;53.868;11.680;2022-10-29T07:19:58;15.80;;;6.70;;
8538;SDS011;4307;53.868;11.680;2022-10-29T07:22:25;17.17;;;6.70;;
8538;SDS011;4307;53.868;11.680;2022-10-29T07:24:51;13.13;;;6.37;;
8538;SDS011;4307;53.868;11.680;2022-10-29T07:27:19;21.87;;;7.23;;
8538;SDS011;4307;53.868;11.680;2022-10-29T07:29:46;14.67;;;6.70;;
8538;SDS011;4307;53.868;11.680;2022-10-29T07:32:13;18.37;;;6.43;;
8538;SDS011;4307;53.868;11.680;2022-10-29T07:34:39;22.53;;;7.07;;
8538;SDS011;4307;53.868;11.680;2022-10-29T07:37:06;15.17;;;6.90;;
8538;SDS011;4307;53.868;11.680;2022-10-29T07:39:33;17.40;;;6.67;;
8538;SDS011;4307;53.868;11.680;2022-10-29T07:41:59;19.40;;;6.47;;
8538;SDS011;4307;53.868;11.680;2022-10-29T07:44:27;16.63;;;6.20;;
8538;SDS011;4307;53.868;11.680;2022-10-29T07:46:54;17.53;;;5.90;;
8538;SDS011;4307;53.868;11.680;2022-10-29T07:49:20;13.53;;;5.70;;
8538;SDS011;4307;53.868;11.680;2022-10-29T07:51:47;13.40;;;5.30;;
8538;SDS011;4307;53.868;11.680;2022-10-29T07:54:14;15.90;;;6.50;;
8538;SDS011;4307;53.868;11.680;2022-10-29T07:56:40;19.57;;;5.73;;
8538;SDS011;4307;53.868;11.680;2022-10-29T07:59:07;17.33;;;5.80;;
8538;SDS011;4307;53.868;11.680;2022-10-29T08:01:35;19.40;;;6.57;;
8538;SDS011;4307;53.868;11.680;2022-10-29T08:04:02;17.77;;;6.80;;
8538;SDS011;4307;53.868;11.680;2022-10-29T08:06:28;12.07;;;5.57;;
8538;SDS011;4307;53.868;11.680;2022-10-29T08:08:55;14.13;;;5.87;;
8538;SDS011;4307;53.868;11.680;2022-10-29T08:11:22;18.37;;;6.80;;
8538;SDS011;4307;53.868;11.680;2022-10-29T08:13:49;13.57;;;5.60;;
8538;SDS011;4307;53.868;11.680;2022-10-29T08:16:15;18.30;;;5.67;;
8538;SDS011;4307;53.868;11.680;2022-10-29T08:18:43;17.23;;;6.07;;
8538;SDS011;4307;53.868;11.680;2022-10-29T08:21:10;11.57;;;5.60;;
8538;SDS011;4307;53.868;11.680;2022-10-29T08:23:37;18.43;;;5.83;;
8538;SDS011;4307;53.868;11.680;2022-10-29T08:26:04;11.57;;;5.50;;
8538;SDS011;4307;53.868;11.680;2022-10-29T08:28:30;11.37;;;5.33;;
8538;SDS011;4307;53.868;11.680;2022-10-29T08:30:57;17.17;;;5.63;;
8538;SDS011;4307;53.868;11.680;2022-10-29T08:33:24;24.07;;;7.20;;
8538;SDS011;4307;53.868;11.680;2022-10-29T08:35:52;15.30;;;6.10;;
8538;SDS011;4307;53.868;11.680;2022-10-29T08:38:18;15.20;;;6.20;;
8538;SDS011;4307;53.868;11.680;2022-10-29T08:40:49;14.70;;;6.17;;
8538;SDS011;4307;53.868;11.680;2022-10-29T08:43:46;14.47;;;5.87;;
8538;SDS011;4307;53.868;11.680;2022-10-29T08:46:28;19.30;;;6.00;;
8538;SDS011;4307;53.868;11.680;2022-10-29T08:49:08;15.27;;;5.80;;
8538;SDS011;4307;53.868;11.680;2022-10-29T08:51:41;15.00;;;5.57;;
8538;SDS011;4307;53.868;11.680;2022-10-29T08:54:13;20.33;;;6.40;;
8538;SDS011;4307;53.868;11.680;2022-10-29T08:56:42;14.73;;;5.50;;
8538;SDS011;4307;53.868;11.680;2022-10-29T08:59:13;25.70;;;6.93;;
8538;SDS011;4307;53.868;11.680;2022-10-29T09:01:41;17.13;;;5.40;;
8538;SDS011;4307;53.868;11.680;2022-10-29T09:04:12;15.60;;;5.77;;
8538;SDS011;4307;53.868;11.680;2022-10-29T09:06:49;21.27;;;6.03;;
8538;SDS011;4307;53.868;11.680;2022-10-29T09:09:30;13.70;;;7.13;;
8538;SDS011;4307;53.868;11.680;2022-10-29T09:12:06;26.20;;;6.20;;
8538;SDS011;4307;53.868;11.680;2022-10-29T09:14:50;16.27;;;5.70;;
8538;SDS011;4307;53.868;11.680;2022-10-29T09:17:38;27.13;;;10.33;;
8538;SDS011;4307;53.868;11.680;2022-10-29T09:20:20;11.73;;;5.17;;
8538;SDS011;4307;53.868;11.680;2022-10-29T09:22:56;17.93;;;5.53;;
8538;SDS011;4307;53.868;11.680;2022-10-29T09:25:32;9.03;;;4.57;;
8538;SDS011;4307;53.868;11.680;2022-10-29T09:28:06;17.67;;;5.43;;
8538;SDS011;4307;53.868;11.680;2022-10-29T09:30:49;12.57;;;5.33;;
8538;SDS011;4307;53.868;11.680;2022-10-29T09:33:23;13.97;;;5.23;;
8538;SDS011;4307;53.868;11.680;2022-10-29T09:35:51;12.43;;;4.70;;
8538;SDS011;4307;53.868;11.680;2022-10-29T09:38:21;13.63;;;4.83;;
8538;SDS011;4307;53.868;11.680;2022-10-29T09:40:50;12.67;;;5.33;;
8538;SDS011;4307;53.868;11.680;2022-10-29T09:43:19;14.80;;;4.93;;
8538;SDS011;4307;53.868;11.680;2022-10-29T09:45:59;15.90;;;5.00;;
8538;SDS011;4307;53.868;11.680;2022-10-29T09:48:31;11.17;;;5.13;;
8538;SDS011;4307;53.868;11.680;2022-10-29T09:51:05;15.20;;;5.70;;
8538;SDS011;4307;53.868;11.680;2022-10-29T09:53:41;14.80;;;5.17;;
8538;SDS011;4307;53.868;11.680;2022-10-29T09:56:08;12.43;;;5.40;;
8538;SDS011;4307;53.868;11.680;2022-10-29T09:58:35;12.10;;;4.97;;
8538;SDS011;4307;53.868;11.680;2022-10-29T10:01:05;14.40;;;5.60;;
8538;SDS011;4307;53.868;11.680;2022-10-29T10:03:33;14.03;;;5.50;;
8538;SDS011;4307;53.868;11.680;2022-10-29T10:06:06;17.33;;;6.00;;
8538;SDS011;4307;53.868;11.680;2022-10-29T10:08:34;15.13;;;6.47;;
8538;SDS011;4307;53.868;11.680;2022-10-29T10:11:25;17.97;;;6.83;;
8538;SDS011;4307;53.868;11.680;2022-10-29T10:13:58;15.97;;;7.20;;
8538;SDS011;4307;53.868;11.680;2022-10-29T10:16:34;15.17;;;6.63;;
8538;SDS011;4307;53.868;11.680;2022-10-29T10:19:01;16.10;;;6.90;;
8538;SDS011;4307;53.868;11.680;2022-10-29T10:21:31;16.90;;;8.03;;
8538;SDS011;4307;53.868;11.680;2022-10-29T10:23:59;12.87;;;7.53;;
8538;SDS011;4307;53.868;11.680;2022-10-29T10:26:29;13.37;;;6.17;;
8538;SDS011;4307;53.868;11.680;2022-10-29T10:29:11;12.73;;;5.63;;
8538;SDS011;4307;53.868;11.680;2022-10-29T10:31:39;12.77;;;5.47;;
8538;SDS011;4307;53.868;11.680;2022-10-29T10:34:08;11.97;;;5.50;;
8538;SDS011;4307;53.868;11.680;2022-10-29T10:36:41;7.47;;;5.00;;
8538;SDS011;4307;53.868;11.680;2022-10-29T10:39:18;13.23;;;5.67;;
8538;SDS011;4307;53.868;11.680;2022-10-29T10:41:51;5.60;;;4.23;;
8538;SDS011;4307;53.868;11.680;2022-10-29T10:44:18;12.17;;;5.03;;
8538;SDS011;4307;53.868;11.680;2022-10-29T10:46:48;13.77;;;5.40;;
8538;SDS011;4307;53.868;11.680;2022-10-29T10:49:19;8.67;;;4.90;;
8538;SDS011;4307;53.868;11.680;2022-10-29T10:51:53;11.60;;;5.77;;
8538;SDS011;4307;53.868;11.680;2022-10-29T10:54:27;13.07;;;6.53;;
8538;SDS011;4307;53.868;11.680;2022-10-29T10:56:58;7.57;;;5.20;;
8538;SDS011;4307;53.868;11.680;2022-10-29T10:59:28;10.00;;;5.10;;
8538;SDS011;4307;53.868;11.680;2022-10-29T11:02:07;9.60;;;6.03;;
8538;SDS011;4307;53.868;11.680;2022-10-29T11:04:45;9.90;;;6.17;;
8538;SDS011;4307;53.868;11.680;2022-10-29T11:07:14;7.50;;;4.50;;
8538;SDS011;4307;53.868;11.680;2022-10-29T11:09:45;9.17;;;5.30;;
8538;SDS011;4307;53.868;11.680;2022-10-29T11:12:14;9.37;;;4.17;;
8538;SDS011;4307;53.868;11.680;2022-10-29T11:14:51;8.43;;;4.77;;
8538;SDS011;4307;53.868;11.680;2022-10-29T11:17:24;8.00;;;4.90;;
8538;SDS011;4307;53.868;11.680;2022-10-29T11:19:53;9.77;;;5.30;;
8538;SDS011;4307;53.868;11.680;2022-10-29T11:22:25;7.97;;;5.17;;
8538;SDS011;4307;53.868;11.680;2022-10-29T11:24:58;11.67;;;4.20;;
8538;SDS011;4307;53.868;11.680;2022-10-29T11:27:33;9.00;;;4.20;;
8538;SDS011;4307;53.868;11.680;2022-10-29T11:30:08;7.13;;;3.77;;
8538;SDS011;4307;53.868;11.680;2022-10-29T11:32:43;8.80;;;3.93;;
8538;SDS011;4307;53.868;11.680;2022-10-29T11:35:19;4.80;;;3.80;;
8538;SDS011;4307;53.868;11.680;2022-10-29T11:37:51;11.23;;;4.73;;
8538;SDS011;4307;53.868;11.680;2022-10-29T11:40:27;8.50;;;4.60;;
8538;SDS011;4307;53.868;11.680;2022-10-29T11:43:01;7.90;;;5.40;;
8538;SDS011;4307;53.868;11.680;2022-10-29T11:45:31;20.23;;;7.17;;
8538;SDS011;4307;53.868;11.680;2022-10-29T11:48:10;8.30;;;5.67;;
8538;SDS011;4307;53.868;11.680;2022-10-29T11:50:44;7.97;;;5.10;;
8538;SDS011;4307;53.868;11.680;2022-10-29T11:53:17;7.93;;;4.83;;
8538;SDS011;4307;53.868;11.680;2022-10-29T11:55:55;9.83;;;5.47;;
8538;SDS011;4307;53.868;11.680;2022-10-29T11:58:28;9.40;;;6.17;;
8538;SDS011;4307;53.868;11.680;2022-10-29T12:00:59;8.73;;;6.30;;
8538;SDS011;4307;53.868;11.680;2022-10-29T12:06:39;14.47;;;7.73;;
8538;SDS011;4307;53.868;11.680;2022-10-29T12:09:28;11.57;;;6.53;;
8538;SDS011;4307;53.868;11.680;2022-10-29T12:12:09;10.60;;;7.40;;
8538;SDS011;4307;53.868;11.680;2022-10-29T12:14:42;9.53;;;6.73;;
8538;SDS011;4307;53.868;11.680;2022-10-29T12:17:14;12.50;;;7.77;;
8538;SDS011;4307;53.868;11.680;2022-10-29T12:19:48;15.00;;;7.40;;
8538;SDS011;4307;53.868;11.680;2022-10-29T12:22:24;10.90;;;6.77;;
8538;SDS011;4307;53.868;11.680;2022-10-29T12:28:00;8.73;;;5.73;;
8538;SDS011;4307;53.868;11.680;2022-10-29T12:30:34;14.00;;;6.93;;
8538;SDS011;4307;53.868;11.680;2022-10-29T12:33:09;14.07;;;7.93;;
8538;SDS011;4307;53.868;11.680;2022-10-29T12:35:43;16.63;;;8.50;;
8538;SDS011;4307;53.868;11.680;2022-10-29T12:38:21;12.93;;;8.53;;
8538;SDS011;4307;53.868;11.680;2022-10-29T12:40:58;13.47;;;8.23;;
8538;SDS011;4307;53.868;11.680;2022-10-29T12:43:30;14.03;;;8.00;;
8538;SDS011;4307;53.868;11.680;2022-10-29T12:46:02;12.03;;;7.73;;
8538;SDS011;4307;53.868;11.680;2022-10-29T12:48:38;17.40;;;8.63;;
8538;SDS011;4307;53.868;11.680;2022-10-29T12:51:14;11.50;;;7.10;;
8538;SDS011;4307;53.868;11.680;2022-10-29T12:53:45;12.30;;;7.00;;
8538;SDS011;4307;53.868;11.680;2022-10-29T12:56:23;14.30;;;8.13;;
8538;SDS011;4307;53.868;11.680;2022-10-29T12:58:54;14.97;;;7.70;;
8538;SDS011;4307;53.868;11.680;2022-10-29T13:01:42;16.53;;;8.07;;
8538;SDS011;4307;53.868;11.680;2022-10-29T13:04:21;14.80;;;8.93;;
8538;SDS011;4307;53.868;11.680;2022-10-29T13:06:55;15.80;;;8.67;;
8538;SDS011;4307;53.868;11.680;2022-10-29T13:09:24;16.83;;;8.53;;
8538;SDS011;4307;53.868;11.680;2022-10-29T13:11:53;16.60;;;7.63;;
8538;SDS011;4307;53.868;11.680;2022-10-29T13:14:23;14.93;;;8.10;;
8538;SDS011;4307;53.868;11.680;2022-10-29T13:16:54;14.07;;;7.67;;
8538;SDS011;4307;53.868;11.680;2022-10-29T13:19:32;12.13;;;8.07;;
8538;SDS011;4307;53.868;11.680;2022-10-29T13:43:27;13.63;;;7.50;;
8538;SDS011;4307;53.868;11.680;2022-10-29T13:46:17;14.97;;;7.40;;
8538;SDS011;4307;53.868;11.680;2022-10-29T13:48:52;17.70;;;7.30;;
8538;SDS011;4307;53.868;11.680;2022-10-29T13:51:22;16.10;;;8.23;;
8538;SDS011;4307;53.868;11.680;2022-10-29T13:53:56;13.93;;;7.80;;
8538;SDS011;4307;53.868;11.680;2022-10-29T13:56:29;18.43;;;7.43;;
8538;SDS011;4307;53.868;11.680;2022-10-29T13:59:00;12.17;;;8.37;;
8538;SDS011;4307;53.868;11.680;2022-10-29T14:01:30;15.27;;;7.50;;
8538;SDS011;4307;53.868;11.680;2022-10-29T14:04:00;16.10;;;8.57;;
8538;SDS011;4307;53.868;11.680;2022-10-29T14:06:31;14.13;;;7.33;;
8538;SDS011;4307;53.868;11.680;2022-10-29T14:09:05;15.23;;;7.37;;
8538;SDS011;4307;53.868;11.680;2022-10-29T14:11:39;13.00;;;7.10;;
8538;SDS011;4307;53.868;11.680;2022-10-29T14:14:17;15.40;;;7.43;;
8538;SDS011;4307;53.868;11.680;2022-10-29T14:16:49;17.17;;;7.60;;
8538;SDS011;4307;53.868;11.680;2022-10-29T14:19:41;12.97;;;7.83;;
8538;SDS011;4307;53.868;11.680;2022-10-29T14:22:15;19.70;;;8.47;;
8538;SDS011;4307;53.868;11.680;2022-10-29T14:25:00;12.13;;;8.00;;
8538;SDS011;4307;53.868;11.680;2022-10-29T14:27:29;16.43;;;8.90;;
8538;SDS011;4307;53.868;11.680;2022-10-29T14:30:11;16.60;;;9.27;;
8538;SDS011;4307;53.868;11.680;2022-10-29T14:32:39;16.47;;;9.53;;
8538;SDS011;4307;53.868;11.680;2022-10-29T14:35:12;21.07;;;10.27;;
8538;SDS011;4307;53.868;11.680;2022-10-29T14:37:40;23.80;;;9.97;;
8538;SDS011;4307;53.868;11.680;2022-10-29T14:40:13;12.57;;;8.13;;
8538;SDS011;4307;53.868;11.680;2022-10-29T14:42:44;15.40;;;8.27;;
8538;SDS011;4307;53.868;11.680;2022-10-29T14:45:16;20.23;;;8.83;;
8538;SDS011;4307;53.868;11.680;2022-10-29T14:47:47;21.03;;;10.47;;
8538;SDS011;4307;53.868;11.680;2022-10-29T14:50:19;17.70;;;9.57;;
8538;SDS011;4307;53.868;11.680;2022-10-29T14:52:48;21.57;;;8.67;;
8538;SDS011;4307;53.868;11.680;2022-10-29T14:55:19;14.57;;;8.47;;
8538;SDS011;4307;53.868;11.680;2022-10-29T14:57:48;27.27;;;9.57;;
8538;SDS011;4307;53.868;11.680;2022-10-29T15:00:22;14.40;;;9.00;;
8538;SDS011;4307;53.868;11.680;2022-10-29T15:02:50;14.60;;;9.43;;
8538;SDS011;4307;53.868;11.680;2022-10-29T15:05:24;44.73;;;10.77;;
8538;SDS011;4307;53.868;11.680;2022-10-29T15:08:02;37.13;;;10.17;;
8538;SDS011;4307;53.868;11.680;2022-10-29T15:10:30;41.20;;;11.10;;
8538;SDS011;4307;53.868;11.680;2022-10-29T15:12:57;16.07;;;10.23;;
8538;SDS011;4307;53.868;11.680;2022-10-29T15:15:25;28.63;;;17.43;;
8538;SDS011;4307;53.868;11.680;2022-10-29T15:17:54;36.87;;;21.90;;
8538;SDS011;4307;53.868;11.680;2022-10-29T15:20:26;28.20;;;19.70;;
8538;SDS011;4307;53.868;11.680;2022-10-29T15:22:56;29.03;;;17.43;;
8538;SDS011;4307;53.868;11.680;2022-10-29T15:25:26;25.97;;;15.47;;
8538;SDS011;4307;53.868;11.680;2022-10-29T15:27:55;24.47;;;12.53;;
8538;SDS011;4307;53.868;11.680;2022-10-29T15:30:27;29.13;;;12.83;;
8538;SDS011;4307;53.868;11.680;2022-10-29T15:32:58;20.33;;;10.47;;
8538;SDS011;4307;53.868;11.680;2022-10-29T15:35:27;23.27;;;10.53;;